createdAt,value
2019-04-05T00:00:42.901Z,29.00
2019-04-05T00:03:13.103Z,28.55
2019-04-05T00:05:43.452Z,27.20
2019-04-05T00:08:14.039Z,28.47
2019-04-05T00:10:44.613Z,25.27
2019-04-05T00:13:14.961Z,22.53
2019-04-05T00:15:46.062Z,27.57
2019-04-05T00:18:16.486Z,29.18
2019-04-05T00:20:46.658Z,29.73
2019-04-05T00:23:17.119Z,30.10
2019-04-05T00:25:47.574Z,30.47
2019-04-05T00:28:18.039Z,29.53
2019-04-05T00:30:48.547Z,29.33
2019-04-05T00:41:17.422Z,26.97
2019-04-05T00:43:47.786Z,30.90
2019-04-05T00:46:18.101Z,31.73
2019-04-05T00:48:48.344Z,31.67
2019-04-05T00:51:19.106Z,31.17
2019-04-05T00:53:49.746Z,30.53
2019-04-05T00:56:20.478Z,32.30
2019-04-05T00:58:50.707Z,30.07
2019-04-05T01:01:21.177Z,33.53
2019-04-05T01:03:51.394Z,34.40
2019-04-05T01:06:21.792Z,33.00
2019-04-05T01:08:52.189Z,34.63
2019-04-05T01:11:22.629Z,32.40
2019-04-05T01:13:54.015Z,35.83
2019-04-05T01:16:24.439Z,34.80
2019-04-05T01:18:54.866Z,33.58
2019-04-05T01:21:26.776Z,38.33
2019-04-05T01:23:59.933Z,35.93
2019-04-05T01:26:31.702Z,39.53
2019-04-05T01:29:02.052Z,35.20
2019-04-05T01:31:32.480Z,40.17
2019-04-05T01:34:05.420Z,40.43
2019-04-05T01:36:35.031Z,39.77
2019-04-05T01:39:07.794Z,39.87
2019-04-05T01:41:38.390Z,37.57
2019-04-05T01:44:09.173Z,35.70
2019-04-05T01:46:39.745Z,38.53
2019-04-05T01:49:09.993Z,40.73
2019-04-05T01:51:40.429Z,40.83
2019-04-05T01:54:10.890Z,40.87
2019-04-05T01:56:41.146Z,44.17
2019-04-05T01:59:11.592Z,42.88
2019-04-05T02:01:42.016Z,43.40
2019-04-05T02:04:12.244Z,42.00
2019-04-05T02:06:42.849Z,38.40
2019-04-05T02:09:13.628Z,45.07
2019-04-05T02:14:18.966Z,42.53
2019-04-05T02:16:49.731Z,39.30
2019-04-05T02:19:20.142Z,38.95
2019-04-05T02:21:50.501Z,43.83
2019-04-05T02:24:20.950Z,52.38
2019-04-05T02:26:51.278Z,48.50
2019-04-05T02:29:21.633Z,46.35
2019-04-05T02:31:52.192Z,50.07
2019-04-05T02:34:22.528Z,43.52
2019-04-05T02:36:52.832Z,48.80
2019-04-05T02:39:23.364Z,47.77
2019-04-05T02:42:03.605Z,41.47
2019-04-05T02:44:43.063Z,47.25
2019-04-05T02:47:14.557Z,51.33
2019-04-05T02:49:46.256Z,49.17
2019-04-05T02:52:20.265Z,47.62
2019-04-05T02:54:51.828Z,47.47
2019-04-05T02:57:22.837Z,46.83
2019-04-05T02:59:53.724Z,47.17
2019-04-05T03:02:24.382Z,50.28
2019-04-05T03:04:54.659Z,50.43
2019-04-05T03:07:26.403Z,52.73
2019-04-05T03:09:57.467Z,44.83
2019-04-05T03:12:28.153Z,54.57
2019-04-05T03:14:59.228Z,49.27
2019-04-05T03:17:29.728Z,49.60
2019-04-05T03:20:02.687Z,54.40
2019-04-05T03:22:34.386Z,56.73
2019-04-05T03:25:05.232Z,50.77
2019-04-05T03:27:38.427Z,50.83
2019-04-05T03:30:09.817Z,56.30
2019-04-05T03:32:40.126Z,50.33
2019-04-05T03:35:10.581Z,49.77
2019-04-05T03:37:40.867Z,51.65
2019-04-05T03:40:11.485Z,54.00
2019-04-05T03:42:41.916Z,55.17
2019-04-05T03:45:12.608Z,45.67
2019-04-05T03:47:43.052Z,50.27
2019-04-05T03:50:13.654Z,44.55
2019-04-05T03:52:44.247Z,46.53
2019-04-05T03:55:14.814Z,56.58
2019-04-05T03:57:45.045Z,47.77
2019-04-05T04:00:15.598Z,50.93
2019-04-05T04:02:45.835Z,51.77
2019-04-05T04:05:16.059Z,50.27
2019-04-05T04:07:46.323Z,52.90
2019-04-05T04:10:22.633Z,59.13
2019-04-05T04:12:53.090Z,56.27
2019-04-05T04:15:23.872Z,53.90
2019-04-05T04:17:54.254Z,46.20
2019-04-05T04:20:45.376Z,53.40
2019-04-05T04:23:16.233Z,59.00
2019-04-05T04:25:52.377Z,55.33
2019-04-05T04:28:22.856Z,53.35
2019-04-05T04:30:53.347Z,53.13
2019-04-05T04:33:23.652Z,60.00
2019-04-05T04:35:54.628Z,54.83
2019-04-05T04:38:25.323Z,53.53
2019-04-05T04:40:56.335Z,54.53
2019-04-05T04:43:27.158Z,50.27
2019-04-05T04:45:57.445Z,54.58
2019-04-05T04:48:29.191Z,45.83
2019-04-05T04:51:00.026Z,49.17
2019-04-05T04:53:30.509Z,45.47
2019-04-05T04:56:00.721Z,54.10
2019-04-05T04:58:31.101Z,42.88
2019-04-05T05:01:01.406Z,46.53
2019-04-05T05:03:32.051Z,47.70
2019-04-05T05:06:08.250Z,41.97
2019-04-05T05:08:38.450Z,47.23
2019-04-05T05:11:14.686Z,46.27
2019-04-05T05:13:41.367Z,42.57
2019-04-05T05:16:11.668Z,47.83
2019-04-05T05:18:42.045Z,45.20
2019-04-05T05:21:12.242Z,45.37
2019-04-05T05:23:42.550Z,46.10
2019-04-05T05:26:12.874Z,43.83
2019-04-05T05:28:43.410Z,47.87
2019-04-05T05:31:13.870Z,48.10
2019-04-05T05:33:44.491Z,47.80
2019-04-05T05:36:14.941Z,40.52
2019-04-05T05:38:45.506Z,39.70
2019-04-05T05:41:15.968Z,43.60
2019-04-05T05:43:46.330Z,48.93
2019-04-05T05:46:16.611Z,43.70
2019-04-05T05:48:46.939Z,45.67
2019-04-05T05:51:17.924Z,43.70
2019-04-05T05:53:48.101Z,38.45
2019-04-05T05:56:18.354Z,43.23
2019-04-05T05:58:48.745Z,49.93
2019-04-05T06:01:19.055Z,48.60
2019-04-05T06:03:49.266Z,43.67
2019-04-05T06:06:19.534Z,46.80
2019-04-05T06:08:49.590Z,46.13
2019-04-05T06:11:19.732Z,45.95
2019-04-05T06:13:49.914Z,42.90
2019-04-05T06:16:20.168Z,46.43
2019-04-05T06:18:50.346Z,45.67
2019-04-05T06:21:20.477Z,45.17
2019-04-05T06:23:50.645Z,46.97
2019-04-05T06:26:20.776Z,47.83
2019-04-05T06:28:51.120Z,45.33
2019-04-05T06:31:21.319Z,49.13
2019-04-05T06:33:51.403Z,45.77
2019-04-05T06:36:21.604Z,50.57
2019-04-05T06:38:51.665Z,44.47
2019-04-05T06:41:21.795Z,50.60
2019-04-05T06:43:51.870Z,44.00
2019-04-05T06:46:21.935Z,52.17
2019-04-05T06:48:52.071Z,48.00
2019-04-05T06:51:22.269Z,47.90
2019-04-05T06:53:52.397Z,44.40
2019-04-05T06:56:22.503Z,45.70
2019-04-05T06:58:52.724Z,51.37
2019-04-05T07:01:22.834Z,45.93
2019-04-05T07:03:55.254Z,44.70
2019-04-05T07:06:24.697Z,45.35
2019-04-05T07:08:54.913Z,45.65
2019-04-05T07:11:25.149Z,42.97
2019-04-05T07:13:55.291Z,42.00
2019-04-05T07:16:25.603Z,44.03
2019-04-05T07:18:55.656Z,41.83
2019-04-05T07:21:25.828Z,42.30
2019-04-05T07:23:55.902Z,34.70
2019-04-05T07:26:26.166Z,38.73
2019-04-05T07:28:56.305Z,39.57
2019-04-05T07:31:26.607Z,33.83
2019-04-05T07:33:56.807Z,35.73
2019-04-05T07:36:26.901Z,32.63
2019-04-05T07:38:57.074Z,31.87
2019-04-05T07:41:27.565Z,32.33
2019-04-05T07:43:57.793Z,33.10
2019-04-05T07:46:27.935Z,26.10
2019-04-05T07:48:58.107Z,28.63
2019-04-05T07:51:28.355Z,28.60
2019-04-05T07:53:58.551Z,29.87
2019-04-05T07:56:28.757Z,24.97
2019-04-05T07:58:58.899Z,23.90
2019-04-05T08:01:29.118Z,22.00
2019-04-05T08:03:59.361Z,21.00
2019-04-05T08:06:30.454Z,20.97
2019-04-05T08:09:10.998Z,19.90
2019-04-05T08:11:44.105Z,22.27
2019-04-05T08:14:17.830Z,19.25
2019-04-05T08:16:47.420Z,19.93
2019-04-05T08:19:17.723Z,21.83
2019-04-05T08:21:47.913Z,20.50
2019-04-05T08:24:18.157Z,21.13
2019-04-05T08:26:48.343Z,18.93
2019-04-05T08:29:18.507Z,19.33
2019-04-05T08:31:48.666Z,22.33
2019-04-05T08:34:18.972Z,19.33
2019-04-05T08:36:49.243Z,19.57
2019-04-05T08:39:19.448Z,26.63
2019-04-05T08:41:49.576Z,17.47
2019-04-05T08:44:19.904Z,21.17
2019-04-05T08:46:50.070Z,20.23
2019-04-05T08:49:20.176Z,21.63
2019-04-05T08:51:50.225Z,20.07
2019-04-05T08:54:31.936Z,22.10
2019-04-05T08:56:52.409Z,23.43
2019-04-05T08:59:22.550Z,18.48
2019-04-05T09:01:52.817Z,19.90
2019-04-05T09:04:23.110Z,21.77
2019-04-05T09:06:53.318Z,16.73
2019-04-05T09:09:24.776Z,19.57
2019-04-05T09:11:55.064Z,20.67
2019-04-05T09:14:25.168Z,20.93
2019-04-05T09:16:55.312Z,24.17
2019-04-05T09:19:25.459Z,21.07
2019-04-05T09:21:55.775Z,19.35
2019-04-05T09:24:25.873Z,18.50
2019-04-05T09:26:56.018Z,21.37
2019-04-05T09:29:26.299Z,21.20
2019-04-05T09:31:56.442Z,19.30
2019-04-05T09:34:26.647Z,22.03
2019-04-05T09:36:56.749Z,18.10
2019-04-05T09:39:26.915Z,20.43
2019-04-05T09:41:56.982Z,24.00
2019-04-05T09:44:27.560Z,21.77
2019-04-05T09:46:57.778Z,24.03
2019-04-05T09:49:36.709Z,19.37
2019-04-05T09:52:04.396Z,21.17
2019-04-05T09:54:34.510Z,19.73
2019-04-05T09:57:04.689Z,21.05
2019-04-05T09:59:34.885Z,25.97
2019-04-05T10:02:05.104Z,20.87
2019-04-05T10:04:35.224Z,19.23
2019-04-05T10:07:05.720Z,21.80
2019-04-05T10:09:35.901Z,21.63
2019-04-05T10:12:06.928Z,19.10
2019-04-05T10:14:37.133Z,20.70
2019-04-05T10:19:49.810Z,19.00
2019-04-05T10:22:14.825Z,19.13
2019-04-05T10:24:44.893Z,19.40
2019-04-05T10:27:15.129Z,20.33
2019-04-05T10:29:45.207Z,22.37
2019-04-05T10:32:15.501Z,18.77
2019-04-05T10:34:45.744Z,20.17
2019-04-05T10:37:15.852Z,19.67
2019-04-05T10:39:45.998Z,18.73
2019-04-05T10:42:30.955Z,19.20
2019-04-05T10:45:01.295Z,18.70
2019-04-05T10:47:31.566Z,19.37
2019-04-05T10:50:03.237Z,19.97
2019-04-05T10:52:33.887Z,18.35
2019-04-05T10:55:04.305Z,20.90
2019-04-05T10:57:34.533Z,20.63
2019-04-05T11:00:06.577Z,21.30
2019-04-05T11:02:36.709Z,18.70
2019-04-05T11:05:07.187Z,18.27
2019-04-05T11:07:37.462Z,22.30
2019-04-05T11:10:08.475Z,20.10
2019-04-05T11:12:38.666Z,18.17
2019-04-05T11:15:09.539Z,18.33
2019-04-05T11:17:41.509Z,21.07
2019-04-05T11:20:21.317Z,18.23
2019-04-05T11:22:46.675Z,20.13
2019-04-05T11:25:20.494Z,18.92
2019-04-05T11:27:49.382Z,16.37
2019-04-05T11:30:42.076Z,17.20
2019-04-05T11:33:12.698Z,17.57
2019-04-05T11:35:42.996Z,17.17
2019-04-05T11:38:14.947Z,17.70
2019-04-05T11:40:46.127Z,19.40
2019-04-05T11:43:17.695Z,17.77
2019-04-05T11:45:48.672Z,22.07
2019-04-05T11:48:20.112Z,15.83
2019-04-05T11:50:50.377Z,15.53
2019-04-05T11:53:22.130Z,14.63
2019-04-05T11:55:52.361Z,16.97
2019-04-05T11:58:22.701Z,16.35
2019-04-05T12:00:59.999Z,17.67
2019-04-05T12:03:30.524Z,19.13
2019-04-05T12:06:00.739Z,18.13
2019-04-05T12:08:30.883Z,19.70
2019-04-05T12:11:01.078Z,19.73
2019-04-05T12:13:31.227Z,15.93
2019-04-05T12:16:01.492Z,17.03
2019-04-05T12:18:34.415Z,15.00
2019-04-05T12:21:05.749Z,15.20
2019-04-05T12:23:35.455Z,15.70
2019-04-05T12:26:06.956Z,16.90
2019-04-05T12:28:37.174Z,15.90
2019-04-05T12:31:07.415Z,15.50
2019-04-05T12:33:39.294Z,18.03
2019-04-05T12:36:09.679Z,17.00
2019-04-05T12:38:40.302Z,15.80
2019-04-05T12:41:11.498Z,19.17
2019-04-05T12:43:44.595Z,17.03
2019-04-05T12:46:15.909Z,15.03
2019-04-05T12:48:46.618Z,15.70
2019-04-05T12:51:17.276Z,14.50
2019-04-05T12:53:47.587Z,13.87
2019-04-05T12:56:18.137Z,16.17
2019-04-05T12:58:48.398Z,14.87
2019-04-05T13:01:20.195Z,15.25
2019-04-05T13:03:51.395Z,14.30
2019-04-05T13:06:22.649Z,13.45
2019-04-05T13:08:53.905Z,14.70
2019-04-05T13:11:26.769Z,13.00
2019-04-05T13:13:57.004Z,14.05
2019-04-05T13:16:27.569Z,15.43
2019-04-05T13:19:00.560Z,14.83
2019-04-05T13:21:32.103Z,12.73
2019-04-05T13:24:04.163Z,14.13
2019-04-05T13:26:36.597Z,11.40
2019-04-05T13:29:07.012Z,12.80
2019-04-05T13:31:37.281Z,11.77
2019-04-05T13:34:07.756Z,12.20
2019-04-05T13:36:37.904Z,13.13
2019-04-05T13:39:11.729Z,11.60
2019-04-05T13:41:41.953Z,12.37
2019-04-05T13:44:12.237Z,11.30
2019-04-05T13:46:43.007Z,13.00
2019-04-05T13:49:13.452Z,12.78
2019-04-05T13:51:43.764Z,12.23
2019-04-05T13:54:14.040Z,14.18
2019-04-05T13:56:44.273Z,11.23
2019-04-05T13:59:14.696Z,10.35
2019-04-05T14:01:44.921Z,10.93
2019-04-05T14:04:17.020Z,11.08
2019-04-05T14:06:47.161Z,14.17
2019-04-05T14:09:17.614Z,14.30
2019-04-05T14:11:47.735Z,12.13
2019-04-05T14:14:17.991Z,11.33
2019-04-05T14:16:48.197Z,11.03
2019-04-05T14:19:19.353Z,11.97
2019-04-05T14:21:52.693Z,9.97
2019-04-05T14:24:23.379Z,12.00
2019-04-05T14:26:53.464Z,11.10
2019-04-05T14:29:23.787Z,11.68
2019-04-05T14:31:53.944Z,10.47
2019-04-05T14:34:24.572Z,10.77
2019-04-05T14:36:54.839Z,13.57
2019-04-05T14:39:25.058Z,11.37
2019-04-05T14:41:55.219Z,12.70
2019-04-05T14:44:25.451Z,10.57
2019-04-05T14:46:57.796Z,12.60
2019-04-05T14:49:30.270Z,12.30
2019-04-05T14:52:01.237Z,12.63
2019-04-05T14:54:31.379Z,11.70
2019-04-05T14:57:05.453Z,11.33
2019-04-05T14:59:33.727Z,11.60
2019-04-05T15:02:04.134Z,13.77
2019-04-05T15:04:34.259Z,15.07
2019-04-05T15:07:04.605Z,13.90
2019-04-05T15:09:34.858Z,13.87
2019-04-05T15:12:05.740Z,12.57
2019-04-05T15:14:36.403Z,13.23
2019-04-05T15:17:07.400Z,11.10
2019-04-05T15:19:37.934Z,12.50
2019-04-05T15:22:10.873Z,13.10
2019-04-05T15:24:40.743Z,12.47
2019-04-05T15:29:55.810Z,13.90
2019-04-05T15:32:28.089Z,13.67
2019-04-05T15:34:58.993Z,11.77
2019-04-05T15:37:32.474Z,12.47
2019-04-05T15:40:02.049Z,12.07
2019-04-05T15:42:32.588Z,12.43
2019-04-05T15:45:03.302Z,11.53
2019-04-05T15:47:33.812Z,11.83
2019-04-05T15:50:04.445Z,15.20
2019-04-05T15:52:34.868Z,11.13
2019-04-05T15:55:05.747Z,13.87
2019-04-05T15:57:39.195Z,12.43
2019-04-05T16:00:10.751Z,14.07
2019-04-05T16:02:43.101Z,13.43
2019-04-05T16:05:14.887Z,16.87
2019-04-05T16:07:47.938Z,13.47
2019-04-05T16:10:18.620Z,17.53
2019-04-05T16:12:48.868Z,16.37
2019-04-05T16:15:19.192Z,15.70
2019-04-05T16:17:49.366Z,17.77
2019-04-05T16:20:19.936Z,18.63
2019-04-05T16:22:50.191Z,17.47
2019-04-05T16:25:20.531Z,19.43
2019-04-05T16:27:50.817Z,15.20
2019-04-05T16:30:21.750Z,49.47
2019-04-05T16:32:51.964Z,18.63
2019-04-05T16:35:22.120Z,17.00
2019-04-05T16:37:52.276Z,14.03
2019-04-05T16:40:22.510Z,16.20
2019-04-05T16:43:02.330Z,19.00
2019-04-05T16:45:24.674Z,15.80
2019-04-05T16:47:54.936Z,15.20
2019-04-05T16:50:25.244Z,18.10
2019-04-05T16:52:55.890Z,19.17
2019-04-05T16:55:26.078Z,18.75
2019-04-05T16:57:56.132Z,20.93
2019-04-05T17:00:26.351Z,17.43
2019-04-05T17:02:56.494Z,19.33
2019-04-05T17:05:26.614Z,19.23
2019-04-05T17:07:56.818Z,16.13
2019-04-05T17:10:27.110Z,19.97
2019-04-05T17:12:57.381Z,17.20
2019-04-05T17:15:27.607Z,16.43
2019-04-05T17:17:57.826Z,21.10
2019-04-05T17:20:28.090Z,22.03
2019-04-05T17:22:58.855Z,16.53
2019-04-05T17:25:29.065Z,18.80
2019-04-05T17:27:59.368Z,17.30
2019-04-05T17:30:29.726Z,18.97
2019-04-05T17:32:59.975Z,16.97
2019-04-05T17:35:30.236Z,17.50
2019-04-05T17:38:00.463Z,16.60
2019-04-05T17:40:30.702Z,17.77
2019-04-05T17:43:00.876Z,15.67
2019-04-05T17:45:31.159Z,23.77
2019-04-05T17:48:03.354Z,15.73
2019-04-05T17:50:35.639Z,15.80
2019-04-05T17:53:12.867Z,18.82
2019-04-05T17:55:38.575Z,18.62
2019-04-05T17:58:09.339Z,17.43
2019-04-05T18:00:39.930Z,19.17
2019-04-05T18:03:10.465Z,17.37
2019-04-05T18:05:41.016Z,19.47
2019-04-05T18:08:11.496Z,22.87
2019-04-05T18:13:08.277Z,22.47
2019-04-05T18:15:46.692Z,23.37
2019-04-05T18:18:10.983Z,23.03
2019-04-05T18:20:41.608Z,24.83
2019-04-05T18:23:24.414Z,25.90
2019-04-05T18:25:44.327Z,23.53
2019-04-05T18:28:14.833Z,21.33
2019-04-05T18:30:45.336Z,23.63
2019-04-05T18:33:15.823Z,24.47
2019-04-05T18:35:46.420Z,21.20
2019-04-05T18:38:16.971Z,23.83
2019-04-05T18:40:47.483Z,23.33
2019-04-05T18:43:18.010Z,20.00
2019-04-05T18:45:48.537Z,23.60
2019-04-05T18:48:18.979Z,23.32
2019-04-05T18:50:49.503Z,24.57
2019-04-05T18:53:20.103Z,23.95
2019-04-05T18:55:50.669Z,24.17
2019-04-05T18:58:21.173Z,23.73
2019-04-05T19:00:51.713Z,24.03
2019-04-05T19:03:22.238Z,24.35
2019-04-05T19:05:52.794Z,29.00
2019-04-05T19:08:23.222Z,25.77
2019-04-05T19:10:53.738Z,25.40
2019-04-05T19:13:24.262Z,24.02
2019-04-05T19:15:54.777Z,24.33
2019-04-05T19:18:25.233Z,23.33
2019-04-05T19:23:50.000Z,23.37
2019-04-05T19:26:10.037Z,24.27
2019-04-05T19:28:40.547Z,32.97
2019-04-05T19:48:56.429Z,24.33
2019-04-05T19:51:27.390Z,26.37
2019-04-05T19:54:01.562Z,31.00
2019-04-05T19:59:17.982Z,30.77
2019-04-05T20:01:48.538Z,25.80
2019-04-05T20:04:18.968Z,24.57
2019-04-05T20:06:58.077Z,29.00
2019-04-05T20:09:22.003Z,25.72
2019-04-05T20:11:52.608Z,29.53
2019-04-05T20:14:23.191Z,32.23
2019-04-05T20:16:53.680Z,27.33
2019-04-05T20:19:24.675Z,28.77
2019-04-05T20:21:55.126Z,29.50
2019-04-05T20:24:25.645Z,28.42
2019-04-05T20:26:56.080Z,28.67
2019-04-05T20:29:26.646Z,30.50
2019-04-05T20:31:57.241Z,27.90
2019-04-05T20:34:27.756Z,30.50
2019-04-05T20:36:58.293Z,30.53
2019-04-05T20:39:28.750Z,30.17
2019-04-05T20:41:59.398Z,27.57
2019-04-05T20:44:29.916Z,26.27
2019-04-05T20:47:00.448Z,30.80
2019-04-05T20:49:31.159Z,30.00
2019-04-05T20:52:01.605Z,32.40
2019-04-05T20:54:32.298Z,36.07
2019-04-05T20:57:02.728Z,32.77
2019-04-05T20:59:33.326Z,32.00
2019-04-05T21:02:03.939Z,34.37
2019-04-05T21:04:34.469Z,30.33
2019-04-05T21:07:04.886Z,29.80
2019-04-05T21:09:35.570Z,27.40
2019-04-05T21:12:07.052Z,25.52
2019-04-05T21:14:37.696Z,33.83
2019-04-05T21:17:08.193Z,30.83
2019-04-05T21:19:38.829Z,30.63
2019-04-05T21:22:09.378Z,30.90
2019-04-05T21:24:39.964Z,31.85
2019-04-05T21:27:12.575Z,30.83
2019-04-05T21:29:43.101Z,33.77
2019-04-05T21:32:13.574Z,31.62
2019-04-05T21:34:44.157Z,33.60
2019-04-05T21:37:15.024Z,34.30
2019-04-05T21:39:45.633Z,27.60
2019-04-05T21:42:16.196Z,34.48
2019-04-05T21:44:47.044Z,29.60
2019-04-05T21:47:17.878Z,34.33
2019-04-05T21:49:48.476Z,47.03
2019-04-05T21:52:19.780Z,37.30
2019-04-05T21:54:51.135Z,39.63
2019-04-05T21:57:21.808Z,43.45
2019-04-05T21:59:52.420Z,54.40
2019-04-05T22:02:23.193Z,47.53
2019-04-05T22:04:53.569Z,52.80
2019-04-05T22:07:23.683Z,54.73
2019-04-05T22:09:54.124Z,48.70
2019-04-05T22:15:13.888Z,50.90
2019-04-05T22:17:44.642Z,45.10
2019-04-05T22:20:15.199Z,40.60
2019-04-05T22:22:45.365Z,46.97
2019-04-05T22:25:15.750Z,45.40
2019-04-05T22:27:46.485Z,52.50
2019-04-05T22:30:17.203Z,51.67
2019-04-05T22:32:47.461Z,48.60
2019-04-05T22:35:17.755Z,50.25
2019-04-05T22:37:48.033Z,48.03
2019-04-05T22:40:18.347Z,53.23
2019-04-05T22:42:48.709Z,51.57
2019-04-05T22:45:19.079Z,48.92
2019-04-05T22:47:49.324Z,48.57
2019-04-05T22:50:19.785Z,54.30
2019-04-05T22:52:50.157Z,54.17
2019-04-05T22:55:20.458Z,54.90
2019-04-05T22:57:50.791Z,60.83
2019-04-05T23:00:21.149Z,64.70
2019-04-05T23:02:51.281Z,67.83
2019-04-05T23:05:21.775Z,69.53
2019-04-05T23:07:51.999Z,77.67
2019-04-05T23:10:22.288Z,65.37
2019-04-05T23:12:52.597Z,72.30
2019-04-05T23:15:22.903Z,71.80
2019-04-05T23:17:53.201Z,67.50
2019-04-05T23:20:23.478Z,71.30
2019-04-05T23:22:53.778Z,73.57
2019-04-05T23:25:24.087Z,73.90
2019-04-05T23:27:54.410Z,75.03
2019-04-05T23:30:26.515Z,62.17
2019-04-05T23:32:59.997Z,60.73
2019-04-05T23:35:30.299Z,57.13
2019-04-05T23:38:00.658Z,66.13
2019-04-05T23:40:30.967Z,61.60
2019-04-05T23:43:01.184Z,63.67
2019-04-05T23:45:31.501Z,63.63
2019-04-05T23:48:01.812Z,65.10
2019-04-05T23:50:32.179Z,55.70
2019-04-05T23:53:02.845Z,67.23
2019-04-05T23:55:33.869Z,55.27
2019-04-05T23:58:04.637Z,57.57
